createdAt,value
2022-08-17T03:48:55.419Z,99825.31
2022-08-17T03:52:17.589Z,99823.88
2022-08-17T03:55:39.059Z,99830.16
2022-08-17T03:58:42.145Z,99835.28
2022-08-17T04:01:46.571Z,99834.22
2022-08-17T04:04:52.673Z,99832.28
2022-08-17T04:07:55.676Z,99837.75
2022-08-17T04:11:00.929Z,99839.59
2022-08-17T04:14:04.999Z,99833.87
2022-08-17T04:17:07.943Z,99841.22
2022-08-17T04:20:12.877Z,99840.75
2022-08-17T04:23:18.652Z,99843.22
2022-08-17T04:26:53.721Z,99856.47
2022-08-17T04:29:49.954Z,99853.03
2022-08-17T04:33:14.084Z,99847.72
2022-08-17T04:36:17.416Z,99851.47
2022-08-17T04:39:19.968Z,99861.97
2022-08-17T04:42:22.810Z,99856.28
2022-08-17T04:45:25.926Z,99849.56
2022-08-17T04:48:40.459Z,99855.41
2022-08-17T04:51:51.036Z,99850.34
2022-08-17T04:54:57.680Z,99855.91
2022-08-17T04:58:00.441Z,99861.81
2022-08-17T05:01:05.903Z,99864.97
2022-08-17T05:04:33.220Z,99862.31
2022-08-17T05:07:35.475Z,99858.34
2022-08-17T05:10:45.491Z,99866.09
2022-08-17T05:13:50.262Z,99869.47
2022-08-17T05:16:53.041Z,99872.84
2022-08-17T05:19:55.953Z,99878.94
2022-08-17T05:23:01.795Z,99879.53
2022-08-17T05:26:04.664Z,99873.03
2022-08-17T05:29:10.436Z,99874.75
2022-08-17T05:32:39.173Z,99868.47
2022-08-17T05:35:39.830Z,99878.16
2022-08-17T05:38:43.310Z,99865.63
2022-08-17T05:41:48.114Z,99867.06
2022-08-17T05:44:50.918Z,99866.00
2022-08-17T05:47:53.655Z,99867.12
2022-08-17T05:51:10.947Z,99866.63
2022-08-17T05:54:45.746Z,99874.34
2022-08-17T05:58:14.894Z,99879.37
2022-08-17T06:01:29.981Z,99879.09
2022-08-17T06:05:04.760Z,99877.19
2022-08-17T06:08:20.610Z,99875.81
2022-08-17T06:11:58.740Z,99877.19
2022-08-17T06:15:04.040Z,99877.72
2022-08-17T06:18:13.725Z,99888.97
2022-08-17T06:21:19.932Z,99887.84
2022-08-17T06:24:46.620Z,99890.53
2022-08-17T06:27:56.022Z,99887.44
2022-08-17T06:31:12.642Z,99889.59
2022-08-17T06:34:15.625Z,99888.69
2022-08-17T06:37:54.754Z,99887.81
2022-08-17T06:41:22.519Z,99891.31
2022-08-17T06:45:04.727Z,99894.84
2022-08-17T06:48:25.459Z,99879.00
2022-08-17T06:51:36.209Z,99883.00
2022-08-17T06:58:16.141Z,99883.62
2022-08-17T07:01:25.205Z,99880.28
2022-08-17T07:04:31.514Z,99879.84
2022-08-17T07:07:56.834Z,99885.13
2022-08-17T07:11:14.424Z,99885.84
2022-08-17T07:14:55.906Z,99878.41
2022-08-17T07:18:00.685Z,99888.59
2022-08-17T07:21:17.559Z,99891.19
2022-08-17T07:24:45.134Z,99886.94
2022-08-17T07:35:53.708Z,99881.16
2022-08-17T07:38:58.203Z,99880.31
2022-08-17T07:42:05.119Z,99890.12
2022-08-17T07:45:28.418Z,99885.94
2022-08-17T07:48:36.654Z,99879.28
2022-08-17T07:51:42.505Z,99891.91
2022-08-17T07:54:45.061Z,99882.78
2022-08-17T07:57:57.423Z,99875.50
2022-08-17T08:01:11.067Z,99884.03
2022-08-17T08:04:29.152Z,99886.06
2022-08-17T08:07:50.539Z,99886.37
2022-08-17T08:11:19.083Z,99883.53
2022-08-17T08:14:29.614Z,99874.38
2022-08-17T08:17:36.663Z,99877.94
2022-08-17T08:20:53.895Z,99878.78
2022-08-17T08:24:05.416Z,99874.66
2022-08-17T08:27:35.617Z,99872.63
2022-08-17T08:30:46.999Z,99871.94
2022-08-17T08:34:09.142Z,99876.34
2022-08-17T08:37:49.983Z,99877.03
2022-08-17T08:41:12.833Z,99879.06
2022-08-17T08:45:01.258Z,99873.69
2022-08-17T08:48:05.091Z,99869.16
2022-08-17T08:51:27.723Z,99874.75
2022-08-17T08:54:36.333Z,99868.69
2022-08-17T08:57:56.925Z,99863.03
2022-08-17T09:01:08.811Z,99857.94
2022-08-17T09:05:10.659Z,99852.66
2022-08-17T09:08:16.574Z,99851.63
2022-08-17T09:12:01.923Z,99857.75
2022-08-17T09:15:27.682Z,99858.44
2022-08-17T09:19:02.961Z,99855.31
2022-08-17T09:22:22.103Z,99853.50
2022-08-17T09:25:29.202Z,99860.59
2022-08-17T09:28:37.245Z,99855.16
2022-08-17T09:31:49.421Z,99864.56
2022-08-17T09:35:01.474Z,99859.78
2022-08-17T09:38:22.799Z,99859.59
2022-08-17T09:41:25.477Z,99858.72
2022-08-17T09:44:59.576Z,99851.97
2022-08-17T09:48:05.710Z,99854.59
2022-08-17T09:51:32.398Z,99853.34
2022-08-17T09:54:40.852Z,99835.59
2022-08-17T09:58:04.944Z,99835.63
2022-08-17T10:01:18.841Z,99834.22
2022-08-17T10:04:47.772Z,99831.22
2022-08-17T10:08:03.778Z,99835.75
2022-08-17T10:11:45.692Z,99831.38
2022-08-17T10:15:13.484Z,99836.25
2022-08-17T10:18:43.520Z,99836.56
2022-08-17T10:22:32.961Z,99836.00
2022-08-17T10:26:12.990Z,99840.97
2022-08-17T10:29:22.828Z,99837.00
2022-08-17T10:32:35.773Z,99837.59
2022-08-17T10:35:44.285Z,99833.19
2022-08-17T10:38:51.346Z,99826.66
2022-08-17T10:42:00.559Z,99828.31
2022-08-17T10:45:15.129Z,99824.47
2022-08-17T10:48:28.144Z,99829.44
2022-08-17T10:51:38.098Z,99826.53
2022-08-17T10:54:47.315Z,99833.37
2022-08-17T10:57:51.144Z,99840.16
2022-08-17T11:00:53.857Z,99833.59
2022-08-17T11:03:59.432Z,99822.06
2022-08-17T11:07:25.837Z,99818.87
2022-08-17T11:10:42.886Z,99821.69
2022-08-17T11:14:04.632Z,99816.38
2022-08-17T11:17:13.273Z,99819.25
2022-08-17T11:20:22.928Z,99814.59
2022-08-17T11:23:45.824Z,99809.56
2022-08-17T11:27:12.271Z,99810.03
2022-08-17T11:30:44.578Z,99799.94
2022-08-17T11:33:58.816Z,99805.72
2022-08-17T11:37:16.937Z,99799.28
2022-08-17T11:40:29.458Z,99788.28
2022-08-17T11:43:56.751Z,99789.19
2022-08-17T11:48:09.004Z,99792.56
2022-08-17T11:51:35.088Z,99777.06
2022-08-17T11:54:45.270Z,99789.41
2022-08-17T11:58:04.228Z,99778.81
2022-08-17T12:01:32.849Z,99783.06
2022-08-17T12:04:36.025Z,99780.87
2022-08-17T12:07:46.302Z,99788.75
2022-08-17T12:12:01.640Z,99774.81
2022-08-17T12:15:10.560Z,99771.66
2022-08-17T12:18:32.477Z,99767.03
2022-08-17T12:21:54.204Z,99758.91
2022-08-17T12:25:16.571Z,99754.00
2022-08-17T12:28:36.436Z,99747.59
2022-08-17T12:31:47.205Z,99758.22
2022-08-17T12:34:51.239Z,99750.50
2022-08-17T12:37:54.711Z,99750.44
2022-08-17T12:40:58.311Z,99747.50
2022-08-17T12:44:15.481Z,99740.19
2022-08-17T12:47:22.190Z,99738.34
2022-08-17T12:50:29.107Z,99736.56
2022-08-17T12:53:35.237Z,99743.09
2022-08-17T12:56:42.239Z,99732.03
2022-08-17T12:59:52.636Z,99728.19
2022-08-17T13:03:07.795Z,99736.06
2022-08-17T13:06:17.019Z,99731.03
2022-08-17T13:09:35.603Z,99738.97
2022-08-17T13:12:42.664Z,99740.59
2022-08-17T13:16:15.525Z,99742.59
2022-08-17T13:19:40.007Z,99735.47
2022-08-17T13:22:53.257Z,99727.97
2022-08-17T13:26:06.166Z,99736.28
2022-08-17T13:29:24.113Z,99726.63
2022-08-17T13:32:47.284Z,99729.41
2022-08-17T13:35:52.218Z,99718.78
2022-08-17T13:39:07.425Z,99724.41
2022-08-17T13:42:50.184Z,99725.84
2022-08-17T13:46:09.104Z,99716.03
2022-08-17T13:49:13.980Z,99713.84
2022-08-17T13:52:37.800Z,99711.44
2022-08-17T13:56:36.904Z,99710.94
2022-08-17T13:59:55.126Z,99711.59
2022-08-17T14:03:00.905Z,99713.09
2022-08-17T14:06:05.607Z,99716.69
2022-08-17T14:09:09.015Z,99710.34
2022-08-17T14:12:16.050Z,99712.72
2022-08-17T14:15:23.578Z,99711.13
2022-08-17T14:18:56.587Z,99713.25
2022-08-17T14:22:00.601Z,99710.41
2022-08-17T14:25:04.463Z,99710.06
2022-08-17T14:28:11.242Z,99710.31
2022-08-17T14:31:14.156Z,99708.34
2022-08-17T14:34:17.141Z,99720.66
2022-08-17T14:37:21.777Z,99709.47
2022-08-17T14:40:25.328Z,99706.28
2022-08-17T14:43:28.246Z,99713.63
2022-08-17T14:46:31.752Z,99718.00
2022-08-17T14:49:34.513Z,99715.53
2022-08-17T14:52:39.584Z,99720.69
2022-08-17T14:55:45.784Z,99716.56
2022-08-17T14:58:51.387Z,99725.25
2022-08-17T15:01:55.940Z,99717.88
2022-08-17T15:05:01.718Z,99715.62
2022-08-17T15:08:06.273Z,99718.75
2022-08-17T15:11:11.801Z,99717.25
2022-08-17T15:14:17.383Z,99715.09
2022-08-17T15:17:20.009Z,99713.84
2022-08-17T15:20:29.797Z,99717.09
2022-08-17T15:23:33.480Z,99713.66
2022-08-17T15:26:37.699Z,99719.13
2022-08-17T15:29:40.543Z,99712.91
